createdAt,value
2022-10-04T00:00:40.360Z,22.40
2022-10-04T00:02:33.615Z,22.23
2022-10-04T00:04:26.617Z,21.05
2022-10-04T00:06:19.799Z,17.80
2022-10-04T00:08:22.413Z,25.88
2022-10-04T00:10:18.906Z,20.27
2022-10-04T00:12:18.498Z,20.70
2022-10-04T00:14:15.083Z,21.88
2022-10-04T00:16:05.998Z,30.27
2022-10-04T00:18:18.979Z,18.58
2022-10-04T00:20:56.494Z,19.20
2022-10-04T00:23:26.084Z,26.38
2022-10-04T00:25:20.125Z,23.13
2022-10-04T00:27:17.232Z,24.83
2022-10-04T00:29:32.457Z,27.25
2022-10-04T00:31:24.534Z,22.60
2022-10-04T00:33:34.551Z,25.83
2022-10-04T00:35:47.869Z,22.63
2022-10-04T00:37:57.409Z,27.88
2022-10-04T00:39:55.822Z,23.33
2022-10-04T00:41:57.248Z,26.60
2022-10-04T00:43:49.023Z,18.95
2022-10-04T00:45:42.173Z,20.42
2022-10-04T00:47:38.115Z,21.40
2022-10-04T00:49:31.312Z,17.98
2022-10-04T00:51:26.773Z,25.85
2022-10-04T00:53:35.173Z,27.35
2022-10-04T00:55:29.631Z,29.10
2022-10-04T00:57:21.963Z,21.35
2022-10-04T00:59:37.567Z,26.35
2022-10-04T01:01:29.261Z,17.95
2022-10-04T01:03:23.627Z,25.50
2022-10-04T01:05:17.281Z,25.50
2022-10-04T01:07:09.098Z,24.90
2022-10-04T01:09:05.446Z,25.83
2022-10-04T01:10:58.043Z,22.70
2022-10-04T01:12:52.415Z,18.77
2022-10-04T01:14:49.509Z,22.27
2022-10-04T01:16:39.995Z,25.23
2022-10-04T01:18:32.469Z,29.15
2022-10-04T01:20:32.111Z,25.98
2022-10-04T01:22:40.615Z,24.20
2022-10-04T01:24:35.031Z,26.17
2022-10-04T01:26:40.138Z,20.85
2022-10-04T01:28:30.924Z,20.20
2022-10-04T01:30:21.389Z,25.35
2022-10-04T01:32:12.012Z,23.85
2022-10-04T01:34:03.565Z,29.67
2022-10-04T01:35:53.874Z,22.00
2022-10-04T01:37:46.044Z,21.88
2022-10-04T01:39:36.324Z,22.90
2022-10-04T01:41:29.801Z,26.27
2022-10-04T01:43:26.234Z,25.58
2022-10-04T01:45:20.008Z,24.70
2022-10-04T01:47:13.463Z,20.15
2022-10-04T01:49:05.677Z,21.95
2022-10-04T01:52:50.584Z,26.00
2022-10-04T01:54:43.749Z,27.25
2022-10-04T01:56:40.175Z,21.50
2022-10-04T01:58:33.515Z,21.27
2022-10-04T02:00:24.508Z,24.83
2022-10-04T02:02:22.759Z,27.42
2022-10-04T02:04:21.343Z,21.63
2022-10-04T02:06:14.358Z,23.92
2022-10-04T02:08:08.908Z,34.75
2022-10-04T02:10:02.626Z,26.20
2022-10-04T02:11:53.884Z,33.88
2022-10-04T02:13:45.151Z,32.33
2022-10-04T02:15:36.012Z,27.98
2022-10-04T02:17:28.835Z,28.90
2022-10-04T02:19:19.797Z,37.00
2022-10-04T02:21:11.424Z,35.38
2022-10-04T02:23:02.225Z,34.05
2022-10-04T02:24:56.441Z,29.80
2022-10-04T02:26:50.268Z,35.97
2022-10-04T02:28:40.789Z,31.27
2022-10-04T02:30:35.825Z,33.85
2022-10-04T02:32:26.289Z,29.40
2022-10-04T02:34:18.056Z,30.73
2022-10-04T02:36:09.302Z,37.55
2022-10-04T02:38:10.352Z,45.88
2022-10-04T02:40:08.303Z,31.85
2022-10-04T02:42:02.788Z,36.72
2022-10-04T02:43:55.458Z,32.72
2022-10-04T02:45:50.326Z,26.50
2022-10-04T02:47:44.775Z,32.90
2022-10-04T02:49:37.506Z,39.20
2022-10-04T02:51:31.932Z,42.17
2022-10-04T02:53:25.932Z,37.30
2022-10-04T02:55:20.678Z,43.70
2022-10-04T02:57:15.774Z,37.47
2022-10-04T02:59:07.020Z,37.90
2022-10-04T03:00:59.735Z,46.95
2022-10-04T03:03:10.438Z,36.65
2022-10-04T03:05:05.682Z,35.83
2022-10-04T03:06:57.697Z,35.40
2022-10-04T03:08:51.627Z,39.80
2022-10-04T03:10:43.820Z,32.83
2022-10-04T03:14:26.844Z,29.67
2022-10-04T03:16:17.739Z,43.30
2022-10-04T03:18:07.989Z,38.90
2022-10-04T03:19:59.609Z,37.55
2022-10-04T03:21:52.745Z,36.42
2022-10-04T03:23:43.722Z,36.70
2022-10-04T03:25:41.129Z,29.50
2022-10-04T03:27:34.154Z,31.58
2022-10-04T03:29:26.668Z,25.08
2022-10-04T03:31:17.281Z,35.95
2022-10-04T03:33:07.634Z,31.77
2022-10-04T03:34:59.212Z,29.67
2022-10-04T03:36:51.297Z,31.67
2022-10-04T03:38:41.944Z,39.97
2022-10-04T03:40:33.391Z,39.33
2022-10-04T03:42:25.751Z,32.20
2022-10-04T03:44:18.337Z,35.38
2022-10-04T03:46:10.083Z,32.38
2022-10-04T03:48:04.684Z,36.95
2022-10-04T03:49:56.517Z,28.48
2022-10-04T03:51:49.400Z,30.20
2022-10-04T03:53:43.268Z,35.78
2022-10-04T03:55:36.723Z,37.92
2022-10-04T03:57:27.025Z,28.70
2022-10-04T03:59:19.115Z,34.08
2022-10-04T04:01:19.800Z,32.55
2022-10-04T04:03:16.508Z,31.40
2022-10-04T04:05:10.360Z,32.45
2022-10-04T04:07:02.760Z,36.65
2022-10-04T04:08:54.620Z,41.35
2022-10-04T04:10:47.157Z,38.97
2022-10-04T04:12:39.802Z,33.22
2022-10-04T04:14:31.723Z,33.03
2022-10-04T04:16:24.224Z,26.92
2022-10-04T04:18:18.101Z,26.40
2022-10-04T04:20:22.198Z,34.28
2022-10-04T04:22:15.648Z,32.90
2022-10-04T04:24:11.714Z,37.88
2022-10-04T04:26:15.114Z,37.25
2022-10-04T04:28:13.514Z,36.33
2022-10-04T04:30:07.077Z,36.38
2022-10-04T04:32:00.601Z,33.95
2022-10-04T04:33:56.426Z,38.10
2022-10-04T04:35:46.880Z,34.30
2022-10-04T04:37:38.448Z,37.45
2022-10-04T04:39:30.935Z,34.00
2022-10-04T04:41:23.117Z,28.05
2022-10-04T04:43:17.563Z,33.45
2022-10-04T04:45:15.221Z,37.50
2022-10-04T04:47:07.006Z,36.95
2022-10-04T04:49:02.148Z,39.45
2022-10-04T04:50:54.289Z,35.33
2022-10-04T04:54:35.582Z,37.33
2022-10-04T04:56:28.097Z,37.83
2022-10-04T04:58:20.148Z,34.38
2022-10-04T05:00:17.101Z,34.45
2022-10-04T05:02:27.980Z,38.83
2022-10-04T05:04:20.388Z,34.13
2022-10-04T05:08:14.824Z,38.47
2022-10-04T05:10:28.530Z,32.20
2022-10-04T05:12:21.604Z,35.00
2022-10-04T05:14:14.348Z,38.47
2022-10-04T05:16:10.198Z,37.30
2022-10-04T05:18:01.503Z,41.92
2022-10-04T05:19:53.076Z,29.73
2022-10-04T05:21:45.491Z,38.80
2022-10-04T05:23:35.977Z,37.70
2022-10-04T05:25:29.461Z,33.67
2022-10-04T05:27:25.052Z,33.97
2022-10-04T05:29:17.560Z,29.05
2022-10-04T05:33:14.203Z,35.08
2022-10-04T05:35:14.989Z,41.55
2022-10-04T05:37:25.414Z,33.85
2022-10-04T05:39:22.169Z,38.55
2022-10-04T05:41:20.310Z,35.85
2022-10-04T05:43:29.689Z,36.45
2022-10-04T05:45:22.445Z,41.70
2022-10-04T05:47:15.835Z,40.28
2022-10-04T05:49:08.581Z,49.55
2022-10-04T05:50:59.176Z,38.78
2022-10-04T05:52:51.409Z,48.72
2022-10-04T05:54:41.575Z,38.00
2022-10-04T05:57:13.729Z,39.95
2022-10-04T05:59:08.403Z,41.10
2022-10-04T06:01:17.755Z,36.20
2022-10-04T06:03:28.772Z,38.55
2022-10-04T06:05:28.779Z,42.40
2022-10-04T06:07:25.619Z,41.85
2022-10-04T06:09:30.168Z,42.83
2022-10-04T06:11:33.679Z,38.92
2022-10-04T06:13:41.833Z,39.10
2022-10-04T06:15:59.717Z,34.47
2022-10-04T06:18:00.242Z,48.83
2022-10-04T06:20:03.258Z,46.78
2022-10-04T06:22:05.487Z,49.78
2022-10-04T06:25:50.817Z,46.97
2022-10-04T06:27:43.948Z,44.45
2022-10-04T06:29:39.309Z,41.88
2022-10-04T06:32:01.002Z,45.60
2022-10-04T06:34:04.030Z,39.03
2022-10-04T06:36:14.696Z,49.55
2022-10-04T06:38:30.518Z,43.40
2022-10-04T06:40:54.349Z,47.60
2022-10-04T06:42:55.288Z,48.38
2022-10-04T06:44:54.776Z,56.70
2022-10-04T06:46:48.914Z,43.33
2022-10-04T06:48:55.049Z,41.75
2022-10-04T06:50:49.338Z,49.80
2022-10-04T06:52:48.538Z,50.63
2022-10-04T06:54:51.327Z,51.72
2022-10-04T06:56:55.700Z,46.72
2022-10-04T06:59:08.170Z,43.92
2022-10-04T07:01:06.833Z,52.40
2022-10-04T07:03:02.643Z,40.95
2022-10-04T07:05:08.475Z,43.60
2022-10-04T07:07:12.337Z,41.92
2022-10-04T07:09:05.539Z,41.50
2022-10-04T07:10:58.495Z,43.35
2022-10-04T07:12:53.240Z,43.53
2022-10-04T07:14:45.672Z,38.63
2022-10-04T07:16:39.646Z,33.97
2022-10-04T07:18:34.169Z,48.63
2022-10-04T07:20:27.182Z,35.95
2022-10-04T07:22:22.647Z,37.63
2022-10-04T07:24:26.224Z,45.95
2022-10-04T07:26:22.930Z,34.45
2022-10-04T07:28:16.471Z,42.22
2022-10-04T07:30:11.355Z,35.50
2022-10-04T07:32:07.165Z,40.75
2022-10-04T07:34:01.598Z,41.95
2022-10-04T07:35:54.657Z,41.10
2022-10-04T07:37:50.307Z,38.03
2022-10-04T07:39:47.846Z,35.28
2022-10-04T07:41:45.643Z,33.45
2022-10-04T07:43:45.568Z,41.88
2022-10-04T07:45:39.297Z,41.05
2022-10-04T07:47:31.870Z,36.90
2022-10-04T07:49:23.462Z,40.47
2022-10-04T07:51:19.992Z,38.45
2022-10-04T07:53:12.008Z,37.42
2022-10-04T07:55:13.089Z,41.88
2022-10-04T07:57:08.230Z,39.28
2022-10-04T07:59:14.071Z,38.22
2022-10-04T08:01:08.617Z,41.90
2022-10-04T08:03:15.090Z,40.67
2022-10-04T08:05:17.348Z,35.47
2022-10-04T08:07:16.296Z,35.25
2022-10-04T08:09:18.851Z,47.38
2022-10-04T08:13:16.058Z,37.25
2022-10-04T08:15:25.292Z,42.33
2022-10-04T08:17:40.695Z,38.92
2022-10-04T08:19:42.880Z,36.35
2022-10-04T08:21:42.153Z,46.97
2022-10-04T08:23:57.718Z,43.80
2022-10-04T08:25:56.806Z,38.95
2022-10-04T08:27:54.414Z,41.00
2022-10-04T08:29:57.020Z,38.92
2022-10-04T08:31:56.352Z,32.15
2022-10-04T08:33:59.467Z,49.08
2022-10-04T08:35:59.374Z,46.63
2022-10-04T08:38:00.659Z,37.08
2022-10-04T08:39:58.255Z,33.63
2022-10-04T08:42:09.659Z,36.22
2022-10-04T08:44:25.813Z,41.45
2022-10-04T08:46:54.808Z,40.33
2022-10-04T08:49:13.062Z,37.35
2022-10-04T08:51:41.073Z,38.17
2022-10-04T08:54:21.140Z,41.72
2022-10-04T08:56:18.668Z,40.78
2022-10-04T08:58:15.461Z,33.00
2022-10-04T09:00:13.654Z,32.58
2022-10-04T09:02:17.173Z,35.70
2022-10-04T09:04:37.208Z,32.92
2022-10-04T09:06:36.269Z,29.48
2022-10-04T09:08:54.856Z,35.53
2022-10-04T09:10:51.106Z,26.67
2022-10-04T09:12:54.692Z,33.00
2022-10-04T09:15:14.992Z,26.02
2022-10-04T09:17:22.455Z,32.15
2022-10-04T09:19:23.405Z,29.15
2022-10-04T09:21:27.140Z,31.48
2022-10-04T09:24:00.720Z,30.77
2022-10-04T09:26:11.123Z,27.63
2022-10-04T09:28:21.941Z,28.08
2022-10-04T09:30:18.056Z,30.50
2022-10-04T09:32:34.668Z,28.25
2022-10-04T09:34:40.539Z,27.98
2022-10-04T09:37:01.929Z,26.75
2022-10-04T09:39:31.239Z,27.00
2022-10-04T09:41:46.244Z,24.52
2022-10-04T09:44:15.112Z,27.20
2022-10-04T09:46:17.684Z,25.35
2022-10-04T09:50:57.621Z,25.67
2022-10-04T09:52:55.415Z,34.97
2022-10-04T09:55:01.571Z,22.15
2022-10-04T09:57:22.245Z,25.35
2022-10-04T09:59:27.135Z,30.88
2022-10-04T10:01:22.657Z,31.50
2022-10-04T10:03:46.557Z,28.60
2022-10-04T10:05:49.047Z,22.98
2022-10-04T10:07:47.097Z,23.23
2022-10-04T10:09:41.869Z,26.27
2022-10-04T10:11:38.856Z,25.15
2022-10-04T10:13:59.097Z,25.92
2022-10-04T10:15:56.172Z,23.98
2022-10-04T10:17:53.899Z,22.20
2022-10-04T10:20:03.746Z,23.05
2022-10-04T10:22:04.209Z,23.88
2022-10-04T10:24:29.442Z,20.08
2022-10-04T10:26:59.220Z,23.55
2022-10-04T10:29:13.638Z,24.58
2022-10-04T10:31:47.890Z,22.77
2022-10-04T10:34:24.559Z,22.73
2022-10-04T10:36:49.621Z,25.65
2022-10-04T10:38:54.411Z,24.13
2022-10-04T10:40:57.467Z,22.95
2022-10-04T10:43:08.922Z,22.70
2022-10-04T10:45:19.259Z,22.67
2022-10-04T10:47:22.513Z,21.42
2022-10-04T10:49:32.933Z,19.98
2022-10-04T10:51:43.150Z,22.52
2022-10-04T10:54:00.975Z,22.25
2022-10-04T10:56:16.341Z,18.42
2022-10-04T10:58:31.015Z,19.58
2022-10-04T11:00:23.315Z,21.55
2022-10-04T11:02:48.222Z,22.88
2022-10-04T11:04:51.393Z,22.00
2022-10-04T11:06:57.368Z,22.75
2022-10-04T11:09:13.923Z,18.80
2022-10-04T11:11:20.882Z,21.13
2022-10-04T11:13:38.897Z,17.60
2022-10-04T11:15:52.652Z,22.02
2022-10-04T11:18:05.190Z,24.27
2022-10-04T11:20:26.725Z,18.73
2022-10-04T11:23:02.200Z,16.50
2022-10-04T11:25:12.422Z,18.13
2022-10-04T11:27:15.144Z,23.90
2022-10-04T11:29:14.737Z,25.60
2022-10-04T11:31:33.040Z,23.50
2022-10-04T11:33:56.328Z,19.75
2022-10-04T11:38:03.741Z,27.73
2022-10-04T11:40:09.956Z,25.42
2022-10-04T11:42:06.607Z,23.27
2022-10-04T11:44:36.874Z,26.85
2022-10-04T11:46:35.887Z,30.05
2022-10-04T11:48:35.451Z,22.23
2022-10-04T11:50:36.680Z,21.42
2022-10-04T11:52:52.482Z,23.05
2022-10-04T11:55:06.263Z,19.92
2022-10-04T11:57:14.145Z,21.90
2022-10-04T11:59:24.579Z,20.38
2022-10-04T12:01:45.422Z,26.88
2022-10-04T12:03:55.160Z,24.02
2022-10-04T12:05:57.942Z,21.58
2022-10-04T12:09:47.697Z,17.25
2022-10-04T12:11:53.399Z,19.70
2022-10-04T12:13:54.360Z,18.75
2022-10-04T12:15:58.193Z,22.90
2022-10-04T12:18:31.148Z,23.20
2022-10-04T12:20:35.978Z,19.95
2022-10-04T12:22:45.628Z,27.13
2022-10-04T12:25:17.829Z,22.63
2022-10-04T12:27:52.096Z,18.27
2022-10-04T12:30:12.921Z,19.40
2022-10-04T12:32:08.281Z,15.80
2022-10-04T12:34:05.096Z,17.85
2022-10-04T12:36:03.992Z,17.83
2022-10-04T12:38:13.600Z,24.27
2022-10-04T12:40:22.752Z,20.15
2022-10-04T12:42:24.168Z,18.30
2022-10-04T12:44:25.825Z,17.98
2022-10-04T12:46:24.674Z,20.33
2022-10-04T12:48:22.810Z,17.55
2022-10-04T12:50:19.734Z,20.70
2022-10-04T12:52:15.422Z,21.02
2022-10-04T12:54:17.072Z,23.73
2022-10-04T12:56:15.564Z,18.80
2022-10-04T12:58:11.710Z,15.25
2022-10-04T13:00:12.904Z,23.75
2022-10-04T13:02:16.272Z,19.10
2022-10-04T13:04:26.373Z,21.23
2022-10-04T13:06:23.956Z,19.80
2022-10-04T13:08:22.696Z,20.92
2022-10-04T13:10:29.252Z,17.63
2022-10-04T13:12:30.721Z,17.33
2022-10-04T13:15:08.518Z,16.20
2022-10-04T13:19:18.244Z,19.85
2022-10-04T13:21:10.345Z,19.25
2022-10-04T13:23:03.782Z,18.17
2022-10-04T13:25:02.092Z,15.65
2022-10-04T13:26:55.996Z,17.17
2022-10-04T13:28:51.918Z,16.63
2022-10-04T13:30:48.191Z,13.77
2022-10-04T13:32:42.850Z,16.80
2022-10-04T13:34:38.372Z,17.85
2022-10-04T13:36:37.000Z,19.02
2022-10-04T13:38:42.267Z,19.80
2022-10-04T13:40:38.779Z,16.77
2022-10-04T13:42:41.816Z,15.05
2022-10-04T13:46:43.307Z,18.25
2022-10-04T13:48:42.362Z,14.63
2022-10-04T13:50:46.044Z,20.83
2022-10-04T13:52:43.294Z,17.45
2022-10-04T13:54:36.453Z,16.20
2022-10-04T13:56:49.714Z,16.77
2022-10-04T13:58:46.727Z,15.32
2022-10-04T14:00:50.220Z,16.35
2022-10-04T14:03:01.805Z,17.83
2022-10-04T14:05:32.068Z,16.13
2022-10-04T14:07:54.066Z,20.08
2022-10-04T14:10:01.709Z,15.43
2022-10-04T14:12:38.118Z,19.20
2022-10-04T14:14:41.059Z,19.88
2022-10-04T14:16:49.780Z,15.50
2022-10-04T14:19:23.570Z,17.88
2022-10-04T14:21:43.598Z,14.05
2022-10-04T14:23:55.561Z,21.17
2022-10-04T14:26:07.196Z,18.58
2022-10-04T14:28:23.742Z,15.75
2022-10-04T14:30:17.853Z,14.82
2022-10-04T14:32:30.945Z,20.35
2022-10-04T14:34:40.746Z,16.50
2022-10-04T14:36:48.407Z,13.40
2022-10-04T14:38:48.368Z,16.52
2022-10-04T14:40:49.286Z,17.70
2022-10-04T14:42:55.688Z,14.00
2022-10-04T14:45:10.840Z,15.13
2022-10-04T14:47:13.472Z,18.10
2022-10-04T14:51:13.553Z,18.50
2022-10-04T14:53:14.011Z,17.38
2022-10-04T14:55:26.471Z,18.48
2022-10-04T14:59:21.475Z,18.23
2022-10-04T15:01:19.340Z,15.75
2022-10-04T15:03:24.968Z,19.60
2022-10-04T15:05:40.398Z,16.33
2022-10-04T15:07:32.549Z,12.20
2022-10-04T15:09:50.878Z,16.25
2022-10-04T15:12:14.310Z,20.45
2022-10-04T15:14:20.579Z,18.10
2022-10-04T15:16:33.671Z,15.95
2022-10-04T15:18:45.197Z,15.00
2022-10-04T15:20:49.391Z,17.98
2022-10-04T15:22:42.607Z,12.60
2022-10-04T15:24:45.197Z,19.58
2022-10-04T15:26:50.230Z,14.57
2022-10-04T15:29:03.443Z,15.73
2022-10-04T15:30:58.762Z,19.20
2022-10-04T15:32:56.254Z,16.60
2022-10-04T15:34:50.219Z,15.77
2022-10-04T15:37:09.659Z,16.20
2022-10-04T15:39:03.501Z,14.52
2022-10-04T15:41:00.900Z,17.92
2022-10-04T15:43:19.883Z,15.85
2022-10-04T15:45:26.189Z,20.27
2022-10-04T15:47:21.708Z,24.20
2022-10-04T15:49:37.969Z,18.15
2022-10-04T15:51:44.753Z,14.82
2022-10-04T15:53:48.508Z,13.15
2022-10-04T15:55:57.447Z,17.67
2022-10-04T15:58:13.839Z,14.07
2022-10-04T16:00:11.315Z,13.68
2022-10-04T16:02:33.813Z,16.52
2022-10-04T16:04:41.223Z,17.33
2022-10-04T16:06:41.707Z,14.80
2022-10-04T16:09:16.985Z,11.68
2022-10-04T16:11:46.495Z,14.53
2022-10-04T16:13:57.385Z,17.20
2022-10-04T16:16:21.154Z,15.98
2022-10-04T16:18:28.386Z,13.93
2022-10-04T16:20:36.037Z,18.08
2022-10-04T16:22:28.865Z,17.40
2022-10-04T16:24:52.551Z,16.73
2022-10-04T16:27:06.416Z,17.85
2022-10-04T16:29:09.544Z,17.45
2022-10-04T16:31:20.551Z,14.93
2022-10-04T16:33:30.661Z,15.50
2022-10-04T16:35:26.798Z,10.20
2022-10-04T16:37:41.812Z,16.55
2022-10-04T16:39:36.118Z,13.65
2022-10-04T16:41:32.481Z,11.52
2022-10-04T16:43:27.901Z,14.18
2022-10-04T16:45:41.633Z,14.68
2022-10-04T16:47:34.673Z,11.80
2022-10-04T16:49:28.856Z,15.00
2022-10-04T16:51:44.959Z,13.25
2022-10-04T16:53:44.478Z,18.77
2022-10-04T16:55:51.849Z,13.88
2022-10-04T16:57:42.217Z,15.02
2022-10-04T16:59:47.623Z,12.18
2022-10-04T17:02:03.160Z,16.73
2022-10-04T17:03:59.806Z,15.38
2022-10-04T17:06:12.661Z,10.82
2022-10-04T17:08:39.854Z,13.73
2022-10-04T17:10:34.084Z,17.08
2022-10-04T17:12:27.780Z,15.18
2022-10-04T17:14:47.117Z,13.85
2022-10-04T17:16:38.785Z,10.85
2022-10-04T17:18:36.288Z,11.23
2022-10-04T17:20:29.840Z,12.95
2022-10-04T17:22:28.781Z,16.50
2022-10-04T17:24:24.865Z,18.63
2022-10-04T17:26:24.632Z,12.98
2022-10-04T17:28:26.964Z,10.85
2022-10-04T17:30:21.160Z,11.30
2022-10-04T17:32:18.834Z,12.02
2022-10-04T17:34:13.504Z,16.20
2022-10-04T17:36:29.788Z,11.32
2022-10-04T17:38:25.262Z,14.45
2022-10-04T17:40:27.343Z,15.07
2022-10-04T17:42:29.530Z,11.77
2022-10-04T17:44:44.393Z,13.63
2022-10-04T17:46:41.027Z,15.02
2022-10-04T17:48:42.426Z,13.35
2022-10-04T17:50:37.676Z,14.80
2022-10-04T17:52:31.945Z,14.07
2022-10-04T17:54:24.411Z,13.85
2022-10-04T17:56:25.297Z,12.60
2022-10-04T17:58:19.281Z,13.60
2022-10-04T18:00:11.802Z,14.82
2022-10-04T18:02:10.520Z,13.93
2022-10-04T18:04:09.431Z,14.73
2022-10-04T18:06:03.195Z,17.05
2022-10-04T18:07:56.965Z,13.13
2022-10-04T18:09:49.660Z,16.67
2022-10-04T18:11:44.169Z,18.73
2022-10-04T18:13:38.552Z,12.85
2022-10-04T18:15:33.474Z,14.70
2022-10-04T18:17:32.093Z,15.43
2022-10-04T18:19:32.693Z,13.65
2022-10-04T18:21:26.477Z,14.88
2022-10-04T18:23:18.417Z,13.68
2022-10-04T18:25:14.212Z,15.10
2022-10-04T18:27:16.574Z,11.38
2022-10-04T18:29:11.265Z,11.02
2022-10-04T18:31:18.971Z,13.70
2022-10-04T18:33:14.013Z,12.65
2022-10-04T18:35:20.293Z,18.15
2022-10-04T18:37:19.295Z,16.65
2022-10-04T18:39:19.424Z,10.32
2022-10-04T18:41:16.760Z,16.13
2022-10-04T18:43:26.281Z,11.25
2022-10-04T18:45:23.038Z,10.30
2022-10-04T18:47:17.971Z,18.23
2022-10-04T18:49:15.060Z,13.10
2022-10-04T18:51:26.317Z,11.73
2022-10-04T18:53:29.008Z,19.73
2022-10-04T18:55:29.041Z,14.85
2022-10-04T18:57:27.365Z,14.50
2022-10-04T18:59:28.236Z,13.85
2022-10-04T19:01:32.115Z,13.05
2022-10-04T19:03:30.153Z,14.77
2022-10-04T19:05:26.825Z,10.82
2022-10-04T19:07:22.205Z,12.82
2022-10-04T19:09:17.508Z,13.15
2022-10-04T19:11:12.146Z,10.27
2022-10-04T19:13:12.441Z,16.33
2022-10-04T19:17:58.715Z,8.70
2022-10-04T19:19:55.249Z,11.93
2022-10-04T19:21:55.520Z,7.53
2022-10-04T19:24:04.323Z,11.13
2022-10-04T19:26:29.914Z,5.78
2022-10-04T19:28:11.010Z,9.23
2022-10-04T19:33:50.587Z,9.13
2022-10-04T19:35:53.034Z,5.70
2022-10-04T19:37:52.234Z,5.40
2022-10-04T19:39:51.315Z,13.32
2022-10-04T19:41:49.021Z,6.78
2022-10-04T19:43:45.064Z,9.25
2022-10-04T19:45:41.584Z,6.10
2022-10-04T19:47:46.938Z,8.93
2022-10-04T19:49:42.727Z,8.38
2022-10-04T19:51:36.210Z,7.57
2022-10-04T19:53:33.299Z,7.38
2022-10-04T19:55:29.587Z,8.52
2022-10-04T19:57:31.977Z,9.48
2022-10-04T19:59:24.980Z,5.18
2022-10-04T20:01:17.220Z,10.68
2022-10-04T20:03:10.615Z,6.85
2022-10-04T20:05:00.944Z,7.30
2022-10-04T20:06:54.584Z,5.30
2022-10-04T20:08:50.576Z,7.65
2022-10-04T20:10:42.400Z,6.53
2022-10-04T20:12:35.631Z,7.00
2022-10-04T20:15:07.938Z,5.85
2022-10-04T20:17:05.255Z,4.90
2022-10-04T20:18:59.387Z,7.00
2022-10-04T20:21:04.412Z,2.47
2022-10-04T20:22:56.290Z,7.18
2022-10-04T20:24:51.196Z,8.77
2022-10-04T20:26:43.639Z,4.10
2022-10-04T20:28:40.091Z,5.00
2022-10-04T20:30:58.289Z,4.88
2022-10-04T20:32:58.991Z,6.68
2022-10-04T20:34:49.888Z,3.88
2022-10-04T20:36:50.756Z,6.63
2022-10-04T20:38:59.082Z,6.40
2022-10-04T20:40:50.992Z,4.82
2022-10-04T20:42:41.584Z,6.43
2022-10-04T20:44:43.250Z,7.10
2022-10-04T20:46:36.532Z,3.83
2022-10-04T20:48:28.234Z,7.55
2022-10-04T20:50:29.777Z,6.63
2022-10-04T20:52:20.596Z,5.83
2022-10-04T20:54:16.131Z,11.10
2022-10-04T20:56:22.331Z,5.05
2022-10-04T20:58:28.283Z,9.25
2022-10-04T21:00:20.665Z,5.68
2022-10-04T21:04:12.748Z,6.45
2022-10-04T21:06:05.745Z,8.52
2022-10-04T21:08:22.921Z,8.27
2022-10-04T21:10:17.453Z,3.75
2022-10-04T21:12:28.012Z,8.38
2022-10-04T21:14:22.887Z,7.75
2022-10-04T21:16:39.392Z,6.43
2022-10-04T21:18:29.832Z,11.40
2022-10-04T21:20:42.124Z,4.82
2022-10-04T21:22:37.229Z,9.38
2022-10-04T21:24:38.156Z,8.43
2022-10-04T21:26:28.466Z,5.22
2022-10-04T21:28:31.719Z,5.55
2022-10-04T21:30:22.143Z,5.03
2022-10-04T21:32:12.819Z,5.55
2022-10-04T21:34:03.437Z,5.60
2022-10-04T21:35:53.837Z,7.00
2022-10-04T21:37:44.162Z,3.75
2022-10-04T21:39:34.381Z,10.05
2022-10-04T21:41:24.685Z,6.13
2022-10-04T21:43:14.880Z,7.22
2022-10-04T21:45:07.458Z,4.32
2022-10-04T21:46:58.035Z,5.25
2022-10-04T21:48:48.340Z,6.80
2022-10-04T21:50:38.598Z,5.28
2022-10-04T21:52:29.373Z,6.15
2022-10-04T21:54:19.847Z,3.42
2022-10-04T21:56:10.649Z,5.47
2022-10-04T21:58:01.257Z,5.32
2022-10-04T21:59:51.821Z,4.25
2022-10-04T22:01:43.714Z,3.55
2022-10-04T22:03:34.001Z,6.80
2022-10-04T22:05:24.298Z,8.55
2022-10-04T22:07:14.951Z,3.05
2022-10-04T22:09:05.412Z,8.27
2022-10-04T22:10:57.924Z,4.93
2022-10-04T22:14:38.797Z,7.70
2022-10-04T22:16:29.333Z,5.40
2022-10-04T22:18:21.576Z,9.02
2022-10-04T22:20:12.095Z,9.68
2022-10-04T22:22:03.459Z,11.45
2022-10-04T22:23:53.784Z,9.73
2022-10-04T22:25:44.100Z,9.77
2022-10-04T22:27:34.411Z,10.15
2022-10-04T22:29:26.082Z,9.00
2022-10-04T22:31:18.871Z,9.05
2022-10-04T22:33:26.572Z,13.00
2022-10-04T22:35:19.157Z,9.38
2022-10-04T22:37:11.230Z,13.27
2022-10-04T22:39:04.689Z,6.22
2022-10-04T22:40:55.123Z,11.60
2022-10-04T22:42:46.373Z,9.23
2022-10-04T22:44:38.554Z,9.55
2022-10-04T22:46:36.223Z,11.98
2022-10-04T22:48:28.013Z,5.22
2022-10-04T22:50:30.809Z,12.73
2022-10-04T22:52:22.870Z,7.35
2022-10-04T22:54:15.656Z,5.18
2022-10-04T22:56:06.533Z,5.30
2022-10-04T22:57:57.159Z,4.43
2022-10-04T22:59:49.536Z,5.78
2022-10-04T23:03:32.617Z,4.30
2022-10-04T23:05:23.321Z,4.10
2022-10-04T23:07:13.965Z,3.72
2022-10-04T23:09:04.703Z,4.53
2022-10-04T23:10:56.114Z,5.18
2022-10-04T23:12:47.221Z,4.97
2022-10-04T23:14:37.475Z,4.72
2022-10-04T23:16:27.861Z,4.15
2022-10-04T23:18:18.615Z,5.55
2022-10-04T23:20:14.411Z,4.93
2022-10-04T23:22:09.853Z,6.50
2022-10-04T23:24:09.407Z,6.15
2022-10-04T23:25:59.833Z,7.45
2022-10-04T23:27:50.505Z,8.35
2022-10-04T23:29:40.891Z,6.03
2022-10-04T23:31:31.616Z,6.35
2022-10-04T23:33:22.597Z,7.15
2022-10-04T23:35:20.658Z,5.57
2022-10-04T23:37:15.781Z,5.63
2022-10-04T23:39:12.743Z,3.90
2022-10-04T23:41:03.133Z,5.65
2022-10-04T23:42:56.058Z,4.18
2022-10-04T23:44:48.294Z,4.60
2022-10-04T23:46:38.888Z,5.38
2022-10-04T23:48:30.094Z,6.80
2022-10-04T23:50:24.997Z,8.00
2022-10-04T23:52:19.594Z,3.72
2022-10-04T23:54:13.057Z,3.58
2022-10-04T23:56:08.340Z,4.32
2022-10-04T23:57:59.510Z,6.90
2022-10-04T23:59:50.310Z,4.93
